createdAt,value
2023-04-17T00:02:15.750Z,83.30
2023-04-17T00:04:42.473Z,83.37
2023-04-17T00:07:09.439Z,83.71
2023-04-17T00:09:35.972Z,83.01
2023-04-17T00:12:02.418Z,82.75
2023-04-17T00:14:28.892Z,82.91
2023-04-17T00:16:55.365Z,82.47
2023-04-17T00:19:21.868Z,82.72
2023-04-17T00:21:48.292Z,82.57
2023-04-17T00:24:14.740Z,83.05
2023-04-17T00:26:41.124Z,82.69
2023-04-17T00:29:07.608Z,83.22
2023-04-17T00:31:34.038Z,83.02
2023-04-17T00:34:01.346Z,82.90
2023-04-17T00:36:31.487Z,82.70
2023-04-17T00:38:58.622Z,82.71
2023-04-17T00:41:25.040Z,82.67
2023-04-17T00:43:51.485Z,82.67
2023-04-17T00:46:18.005Z,82.29
2023-04-17T00:48:44.605Z,82.43
2023-04-17T00:51:11.066Z,82.33
2023-04-17T00:53:37.736Z,82.22
2023-04-17T00:56:05.776Z,82.30
2023-04-17T00:58:33.225Z,82.02
2023-04-17T01:00:59.925Z,82.09
2023-04-17T01:03:29.613Z,82.09
2023-04-17T01:05:56.135Z,82.43
2023-04-17T01:08:22.642Z,82.29
2023-04-17T01:10:49.037Z,81.82
2023-04-17T01:13:15.537Z,81.60
2023-04-17T01:15:42.863Z,82.20
2023-04-17T01:18:09.301Z,82.10
2023-04-17T01:20:37.493Z,82.34
2023-04-17T01:23:03.861Z,82.03
2023-04-17T01:25:30.385Z,82.06
2023-04-17T01:27:57.009Z,82.06
2023-04-17T01:30:23.515Z,81.20
2023-04-17T01:32:50.123Z,80.22
2023-04-17T01:35:16.600Z,80.15
2023-04-17T01:37:43.040Z,80.48
2023-04-17T01:40:09.981Z,80.35
2023-04-17T01:42:36.414Z,80.27
2023-04-17T01:45:04.258Z,80.36
2023-04-17T01:47:30.659Z,80.21
2023-04-17T01:49:57.103Z,80.17
2023-04-17T01:52:23.497Z,80.04
2023-04-17T01:54:49.920Z,79.90
2023-04-17T01:57:16.446Z,79.74
2023-04-17T01:59:42.891Z,80.20
2023-04-17T02:02:09.459Z,79.77
2023-04-17T02:04:36.107Z,79.84
2023-04-17T02:07:02.854Z,79.71
2023-04-17T02:09:29.255Z,79.71
2023-04-17T02:11:56.783Z,80.07
2023-04-17T02:14:23.228Z,80.08
2023-04-17T02:16:50.087Z,79.73
2023-04-17T02:19:16.507Z,79.92
2023-04-17T02:21:42.946Z,79.74
2023-04-17T02:24:09.381Z,79.64
2023-04-17T02:26:37.010Z,79.30
2023-04-17T02:29:03.512Z,79.28
2023-04-17T02:31:31.646Z,79.53
2023-04-17T02:33:58.091Z,79.50
2023-04-17T02:36:24.516Z,79.46
2023-04-17T02:38:50.912Z,79.40
2023-04-17T02:41:17.398Z,79.23
2023-04-17T02:43:43.782Z,79.18
2023-04-17T02:46:10.485Z,79.70
2023-04-17T02:48:37.057Z,79.12
2023-04-17T02:51:03.593Z,79.03
2023-04-17T02:53:30.267Z,79.42
2023-04-17T02:55:56.675Z,79.19
2023-04-17T02:58:23.066Z,79.41
2023-04-17T03:00:49.521Z,78.99
2023-04-17T03:03:16.122Z,79.21
2023-04-17T03:05:42.678Z,79.24
2023-04-17T03:08:09.077Z,79.40
2023-04-17T03:10:35.486Z,79.11
2023-04-17T03:13:03.592Z,78.78
2023-04-17T03:15:30.000Z,79.02
2023-04-17T03:17:56.544Z,79.13
2023-04-17T03:20:22.961Z,79.34
2023-04-17T03:22:49.381Z,78.95
2023-04-17T03:25:15.914Z,78.98
2023-04-17T03:27:42.346Z,79.03
2023-04-17T03:30:09.236Z,78.95
2023-04-17T03:32:35.968Z,78.82
2023-04-17T03:35:02.406Z,79.39
2023-04-17T03:37:28.840Z,78.70
2023-04-17T03:39:55.636Z,79.24
2023-04-17T03:42:22.045Z,78.98
2023-04-17T03:44:48.476Z,79.07
2023-04-17T03:47:14.871Z,78.81
2023-04-17T03:49:41.329Z,79.27
2023-04-17T03:52:07.780Z,78.94
2023-04-17T03:54:35.795Z,78.66
2023-04-17T03:57:03.176Z,78.54
2023-04-17T03:59:31.365Z,78.71
2023-04-17T04:01:57.798Z,79.05
2023-04-17T04:04:24.887Z,79.24
2023-04-17T04:06:54.466Z,79.74
2023-04-17T04:09:21.414Z,79.08
2023-04-17T04:11:47.907Z,79.40
2023-04-17T04:14:15.055Z,79.37
2023-04-17T04:16:41.476Z,79.21
2023-04-17T04:19:08.096Z,79.34
2023-04-17T04:21:34.554Z,79.57
2023-04-17T04:24:01.018Z,79.37
2023-04-17T04:26:27.398Z,79.71
2023-04-17T04:28:54.135Z,79.36
2023-04-17T04:31:21.269Z,78.88
2023-04-17T04:33:47.773Z,79.48
2023-04-17T04:36:14.193Z,80.02
2023-04-17T04:38:40.576Z,80.07
2023-04-17T04:41:09.928Z,80.13
2023-04-17T04:43:36.912Z,79.79
2023-04-17T04:46:03.630Z,79.99
2023-04-17T04:48:30.049Z,79.84
2023-04-17T04:50:56.490Z,79.74
2023-04-17T04:53:23.099Z,79.80
2023-04-17T04:55:49.573Z,79.68
2023-04-17T04:58:16.303Z,79.54
2023-04-17T05:00:43.515Z,79.89
2023-04-17T05:03:10.221Z,79.83
2023-04-17T05:05:37.790Z,80.19
2023-04-17T05:08:04.273Z,80.55
2023-04-17T05:10:31.098Z,80.52
2023-04-17T05:12:57.785Z,81.03
2023-04-17T05:15:24.206Z,80.97
2023-04-17T05:17:50.670Z,80.45
2023-04-17T05:20:17.141Z,80.25
2023-04-17T05:22:43.555Z,80.46
2023-04-17T05:25:10.007Z,79.97
2023-04-17T05:27:36.458Z,80.41
2023-04-17T05:30:03.063Z,80.91
2023-04-17T05:32:31.184Z,80.59
2023-04-17T05:34:57.615Z,81.46
2023-04-17T05:37:24.068Z,80.99
2023-04-17T05:39:50.488Z,80.99
2023-04-17T05:42:17.355Z,80.30
2023-04-17T05:44:43.723Z,81.40
2023-04-17T05:47:10.122Z,81.34
2023-04-17T05:49:36.579Z,81.28
2023-04-17T05:52:02.993Z,81.32
2023-04-17T05:54:30.304Z,81.59
2023-04-17T05:56:56.814Z,81.47
2023-04-17T05:59:23.231Z,81.54
2023-04-17T06:01:49.696Z,81.64
2023-04-17T06:04:18.065Z,81.67
2023-04-17T06:06:44.962Z,81.82
2023-04-17T06:09:11.946Z,81.88
2023-04-17T06:11:38.698Z,81.84
2023-04-17T06:14:05.374Z,81.68
2023-04-17T06:16:31.833Z,82.08
2023-04-17T06:18:58.205Z,82.54
2023-04-17T06:21:24.713Z,82.01
2023-04-17T06:23:51.358Z,81.90
2023-04-17T06:26:17.831Z,81.92
2023-04-17T06:28:44.187Z,81.85
2023-04-17T06:31:11.085Z,82.24
2023-04-17T06:33:37.601Z,82.30
2023-04-17T06:36:04.217Z,82.32
2023-04-17T06:38:30.646Z,82.35
2023-04-17T06:40:57.103Z,82.32
2023-04-17T06:43:23.561Z,82.46
2023-04-17T06:45:50.047Z,82.55
2023-04-17T06:48:16.493Z,82.13
2023-04-17T06:50:42.880Z,82.29
2023-04-17T06:53:09.360Z,82.57
2023-04-17T06:55:35.827Z,82.48
2023-04-17T06:58:02.285Z,82.07
2023-04-17T07:00:28.688Z,81.79
2023-04-17T07:02:55.232Z,81.89
2023-04-17T07:05:21.739Z,81.70
2023-04-17T07:07:48.406Z,81.87
2023-04-17T07:10:16.097Z,82.19
2023-04-17T07:12:42.656Z,82.28
2023-04-17T07:15:11.075Z,82.03
2023-04-17T07:17:37.625Z,81.66
2023-04-17T07:20:07.398Z,80.54
2023-04-17T07:22:36.747Z,80.69
2023-04-17T07:25:03.899Z,80.36
2023-04-17T07:27:30.317Z,80.60
2023-04-17T07:29:56.810Z,80.81
2023-04-17T07:32:24.713Z,79.71
2023-04-17T07:34:51.212Z,79.95
2023-04-17T07:37:17.705Z,79.59
2023-04-17T07:39:45.028Z,79.80
2023-04-17T07:42:11.496Z,79.21
2023-04-17T07:44:41.073Z,79.66
2023-04-17T07:47:07.621Z,79.09
2023-04-17T07:49:34.291Z,78.65
2023-04-17T07:52:00.673Z,78.66
2023-04-17T07:54:27.196Z,78.20
2023-04-17T07:56:56.609Z,78.19
2023-04-17T07:59:23.011Z,78.17
2023-04-17T08:01:49.496Z,78.20
2023-04-17T08:04:17.088Z,78.51
2023-04-17T08:06:43.602Z,77.48
2023-04-17T08:09:10.364Z,77.64
2023-04-17T08:11:49.515Z,76.55
2023-04-17T08:14:23.615Z,77.27
2023-04-17T08:16:50.222Z,76.80
2023-04-17T08:19:16.742Z,76.81
2023-04-17T08:21:43.170Z,77.49
2023-04-17T08:24:09.621Z,77.40
2023-04-17T08:26:36.168Z,76.68
2023-04-17T08:29:04.560Z,76.47
2023-04-17T08:31:31.463Z,76.26
2023-04-17T08:34:12.844Z,76.68
2023-04-17T08:36:41.191Z,76.40
2023-04-17T08:39:09.944Z,76.26
2023-04-17T08:41:43.779Z,76.27
2023-04-17T08:44:10.761Z,75.76
2023-04-17T08:46:38.182Z,75.96
2023-04-17T08:49:04.829Z,75.53
2023-04-17T08:51:31.497Z,74.84
2023-04-17T08:53:57.870Z,74.42
2023-04-17T08:56:24.318Z,74.74
2023-04-17T08:58:51.005Z,73.59
2023-04-17T09:01:19.773Z,73.34
2023-04-17T09:03:48.980Z,73.61
2023-04-17T09:06:15.968Z,73.58
2023-04-17T09:09:00.629Z,72.62
2023-04-17T09:11:27.401Z,73.34
2023-04-17T09:13:54.276Z,71.85
2023-04-17T09:16:21.093Z,71.15
2023-04-17T09:18:48.249Z,62.79
2023-04-17T09:21:20.828Z,63.35
2023-04-17T09:23:51.172Z,62.64
2023-04-17T09:26:27.826Z,62.68
2023-04-17T09:29:13.759Z,63.33
2023-04-17T09:31:42.469Z,63.78
2023-04-17T09:34:11.856Z,62.63
2023-04-17T09:36:41.487Z,62.47
2023-04-17T09:39:24.202Z,62.12
2023-04-17T09:41:51.059Z,63.24
2023-04-17T09:44:29.878Z,63.36
2023-04-17T09:46:56.867Z,64.28
2023-04-17T09:49:39.631Z,63.96
2023-04-17T09:52:06.739Z,64.88
2023-04-17T09:54:37.733Z,65.67
2023-04-17T09:57:08.741Z,65.65
2023-04-17T09:59:38.974Z,65.41
2023-04-17T10:02:08.300Z,63.88
2023-04-17T10:04:35.439Z,61.94
2023-04-17T10:07:02.905Z,62.65
2023-04-17T10:09:29.325Z,61.33
2023-04-17T10:11:56.689Z,61.52
2023-04-17T10:14:28.279Z,61.02
2023-04-17T10:16:54.820Z,62.19
2023-04-17T10:19:31.355Z,62.67
2023-04-17T10:22:16.098Z,63.57
2023-04-17T10:24:43.075Z,62.72
2023-04-17T10:27:24.590Z,61.84
2023-04-17T10:29:57.708Z,62.33
2023-04-17T10:32:28.978Z,62.38
2023-04-17T10:35:01.254Z,63.05
2023-04-17T10:37:46.490Z,62.38
2023-04-17T10:40:20.629Z,61.89
2023-04-17T10:43:17.726Z,62.87
2023-04-17T10:46:03.537Z,62.52
2023-04-17T10:48:36.645Z,61.78
2023-04-17T10:51:29.131Z,62.18
2023-04-17T10:53:57.220Z,62.64
2023-04-17T10:56:30.505Z,63.83
2023-04-17T10:58:59.776Z,62.12
2023-04-17T11:01:29.393Z,62.58
2023-04-17T11:03:56.930Z,63.11
2023-04-17T11:06:28.057Z,62.98
2023-04-17T11:08:57.179Z,63.34
2023-04-17T11:11:35.262Z,63.66
2023-04-17T11:14:14.382Z,63.43
2023-04-17T11:16:42.789Z,63.43
2023-04-17T11:19:09.984Z,63.46
2023-04-17T11:21:43.371Z,63.13
2023-04-17T11:24:10.220Z,63.67
2023-04-17T11:26:47.017Z,63.81
2023-04-17T11:29:17.476Z,64.27
2023-04-17T11:31:45.600Z,63.78
2023-04-17T11:34:12.209Z,63.26
2023-04-17T11:36:38.700Z,63.68
2023-04-17T11:39:05.447Z,62.24
2023-04-17T11:41:38.824Z,61.95
2023-04-17T11:44:09.063Z,61.62
2023-04-17T11:46:36.033Z,62.13
2023-04-17T11:49:06.277Z,60.85
2023-04-17T11:51:33.269Z,61.51
2023-04-17T11:54:00.034Z,60.37
2023-04-17T11:56:30.946Z,61.08
2023-04-17T11:58:58.484Z,60.67
2023-04-17T12:01:26.389Z,60.76
2023-04-17T12:03:54.253Z,60.40
2023-04-17T12:06:20.918Z,60.11
2023-04-17T12:08:51.172Z,59.82
2023-04-17T12:11:26.333Z,59.35
2023-04-17T12:13:56.303Z,58.93
2023-04-17T12:16:27.163Z,59.35
2023-04-17T12:18:54.007Z,58.11
2023-04-17T12:21:20.776Z,57.72
2023-04-17T12:23:47.683Z,56.45
2023-04-17T12:26:14.429Z,56.71
2023-04-17T12:28:40.843Z,55.88
2023-04-17T12:31:07.382Z,54.27
2023-04-17T12:33:34.017Z,53.58
2023-04-17T12:36:01.785Z,53.04
2023-04-17T12:38:28.397Z,53.15
2023-04-17T12:40:54.776Z,53.47
2023-04-17T12:43:21.163Z,52.79
2023-04-17T12:45:47.880Z,52.31
2023-04-17T12:48:14.994Z,51.90
2023-04-17T12:50:44.449Z,51.09
2023-04-17T12:53:12.612Z,50.52
2023-04-17T12:55:41.199Z,51.07
2023-04-17T12:58:10.028Z,50.19
2023-04-17T13:00:37.211Z,50.25
2023-04-17T13:03:03.779Z,50.74
2023-04-17T13:05:31.103Z,48.49
2023-04-17T13:07:59.002Z,48.16
2023-04-17T13:10:25.560Z,48.37
2023-04-17T13:12:52.022Z,47.68
2023-04-17T13:15:18.587Z,46.49
2023-04-17T13:17:45.339Z,46.53
2023-04-17T13:20:12.660Z,46.73
2023-04-17T13:22:39.308Z,46.18
2023-04-17T13:25:06.327Z,44.96
2023-04-17T13:27:32.760Z,44.53
2023-04-17T13:29:59.128Z,43.23
2023-04-17T13:32:25.603Z,44.25
2023-04-17T13:34:52.077Z,42.88
2023-04-17T13:37:18.546Z,43.76
2023-04-17T13:39:45.060Z,43.91
2023-04-17T13:42:14.893Z,44.09
2023-04-17T13:44:41.390Z,44.54
2023-04-17T13:47:08.067Z,44.02
2023-04-17T13:49:34.435Z,44.63
2023-04-17T13:52:00.875Z,44.40
2023-04-17T13:54:27.312Z,44.48
2023-04-17T13:56:54.035Z,44.78
2023-04-17T13:59:20.769Z,44.05
2023-04-17T14:01:47.212Z,44.58
2023-04-17T14:04:13.971Z,44.30
2023-04-17T14:06:40.557Z,44.61
2023-04-17T14:09:07.483Z,45.15
2023-04-17T14:11:33.989Z,45.55
2023-04-17T14:14:00.628Z,47.13
2023-04-17T14:16:27.600Z,47.18
2023-04-17T14:18:54.131Z,47.56
2023-04-17T14:21:21.902Z,48.37
2023-04-17T14:23:50.697Z,48.78
2023-04-17T14:26:17.177Z,48.96
2023-04-17T14:28:43.622Z,49.60
2023-04-17T14:31:10.626Z,50.17
2023-04-17T14:33:37.008Z,50.27
2023-04-17T14:36:05.658Z,50.31
2023-04-17T14:38:32.399Z,50.38
2023-04-17T14:40:58.908Z,51.04
2023-04-17T14:43:25.314Z,51.67
2023-04-17T14:45:51.754Z,52.20
2023-04-17T14:48:20.001Z,51.73
2023-04-17T14:50:47.007Z,51.47
2023-04-17T14:53:13.454Z,51.93
2023-04-17T14:55:39.919Z,51.18
2023-04-17T14:58:06.518Z,51.31
2023-04-17T15:00:33.104Z,51.39
2023-04-17T15:02:59.734Z,51.63
2023-04-17T15:05:27.010Z,51.94
2023-04-17T15:07:53.798Z,52.28
2023-04-17T15:10:20.337Z,52.47
2023-04-17T15:12:46.735Z,53.29
2023-04-17T15:15:13.253Z,54.01
2023-04-17T15:17:40.451Z,54.13
2023-04-17T15:20:07.392Z,53.57
2023-04-17T15:22:33.851Z,53.36
2023-04-17T15:25:00.284Z,54.09
2023-04-17T15:27:26.761Z,53.36
2023-04-17T15:29:53.208Z,53.63
2023-04-17T15:32:19.711Z,54.65
2023-04-17T15:34:47.357Z,55.20
2023-04-17T15:37:13.817Z,56.09
2023-04-17T15:39:40.509Z,56.93
2023-04-17T15:42:09.356Z,57.82
2023-04-17T15:44:37.447Z,58.07
2023-04-17T15:47:05.230Z,58.08
2023-04-17T15:49:31.736Z,58.50
2023-04-17T15:51:58.589Z,58.46
2023-04-17T15:54:25.037Z,58.18
2023-04-17T15:56:51.494Z,58.30
2023-04-17T15:59:17.929Z,58.24
2023-04-17T16:01:45.967Z,58.27
2023-04-17T16:04:12.536Z,58.60
2023-04-17T16:06:39.038Z,58.81
2023-04-17T16:09:05.485Z,58.41
2023-04-17T16:11:32.196Z,59.31
2023-04-17T16:13:58.645Z,59.73
2023-04-17T16:16:25.208Z,59.88
2023-04-17T16:18:51.679Z,59.18
2023-04-17T16:21:18.103Z,58.84
2023-04-17T16:23:45.780Z,58.68
2023-04-17T16:26:13.696Z,58.54
2023-04-17T16:28:40.102Z,58.25
2023-04-17T16:31:06.580Z,58.84
2023-04-17T16:33:33.076Z,58.74
2023-04-17T16:35:59.470Z,58.53
2023-04-17T16:38:26.024Z,59.06
2023-04-17T16:40:53.541Z,59.32
2023-04-17T16:43:20.085Z,59.47
2023-04-17T16:45:46.604Z,59.89
2023-04-17T16:48:13.081Z,60.59
2023-04-17T16:50:39.520Z,60.95
2023-04-17T16:53:05.944Z,60.93
2023-04-17T16:55:32.356Z,61.05
2023-04-17T16:58:00.572Z,60.93
2023-04-17T17:00:27.015Z,61.64
2023-04-17T17:02:53.542Z,61.53
2023-04-17T17:05:20.028Z,61.48
2023-04-17T17:07:46.449Z,62.09
2023-04-17T17:10:13.008Z,62.14
2023-04-17T17:12:39.444Z,62.08
2023-04-17T17:15:06.660Z,62.58
2023-04-17T17:17:33.142Z,62.59
2023-04-17T17:20:00.030Z,63.17
2023-04-17T17:22:26.460Z,63.35
2023-04-17T17:24:53.022Z,63.03
2023-04-17T17:27:19.415Z,63.27
2023-04-17T17:29:45.835Z,62.79
2023-04-17T17:32:12.323Z,63.10
2023-04-17T17:34:38.807Z,63.81
2023-04-17T17:37:05.242Z,64.59
2023-04-17T17:39:31.646Z,64.87
2023-04-17T17:41:58.147Z,64.82
2023-04-17T17:44:24.691Z,64.71
2023-04-17T17:46:51.167Z,65.61
2023-04-17T17:49:17.627Z,65.99
2023-04-17T17:51:44.506Z,66.30
2023-04-17T17:54:11.156Z,66.64
2023-04-17T17:56:38.795Z,66.94
2023-04-17T17:59:05.218Z,67.37
2023-04-17T18:01:31.661Z,67.31
2023-04-17T18:03:58.315Z,67.26
2023-04-17T18:06:25.979Z,67.48
2023-04-17T18:08:52.926Z,68.04
2023-04-17T18:11:20.695Z,67.71
2023-04-17T18:13:47.148Z,68.38
2023-04-17T18:16:13.571Z,68.71
2023-04-17T18:18:40.017Z,69.10
2023-04-17T18:21:07.216Z,68.74
2023-04-17T18:23:33.669Z,69.07
2023-04-17T18:26:01.057Z,69.07
2023-04-17T18:28:27.567Z,69.46
2023-04-17T18:30:54.204Z,70.11
2023-04-17T18:33:20.740Z,70.77
2023-04-17T18:35:47.134Z,71.00
2023-04-17T18:38:14.398Z,71.46
2023-04-17T18:40:40.746Z,71.98
2023-04-17T18:43:09.969Z,72.18
2023-04-17T18:45:36.484Z,72.37
2023-04-17T18:48:03.014Z,73.10
2023-04-17T18:50:29.474Z,73.34
2023-04-17T18:52:56.131Z,73.89
2023-04-17T18:55:22.664Z,74.59
2023-04-17T18:57:49.075Z,73.92
2023-04-17T19:00:15.650Z,74.42
2023-04-17T19:02:42.637Z,74.23
2023-04-17T19:05:09.271Z,74.43
2023-04-17T19:07:35.727Z,74.87
2023-04-17T19:10:02.139Z,75.27
2023-04-17T19:12:28.680Z,75.48
2023-04-17T19:14:57.113Z,75.78
2023-04-17T19:17:25.270Z,76.10
2023-04-17T19:19:51.751Z,75.65
2023-04-17T19:22:18.565Z,76.35
2023-04-17T19:24:49.822Z,75.55
2023-04-17T19:27:16.864Z,75.25
2023-04-17T19:29:43.342Z,75.01
2023-04-17T19:32:09.918Z,73.97
2023-04-17T19:34:36.614Z,73.78
2023-04-17T19:37:03.102Z,73.74
2023-04-17T19:39:29.603Z,73.33
2023-04-17T19:41:55.995Z,73.81
2023-04-17T19:44:22.621Z,73.21
2023-04-17T19:46:49.004Z,73.50
2023-04-17T19:49:15.640Z,72.61
2023-04-17T19:51:42.134Z,72.96
2023-04-17T19:54:09.883Z,72.93
2023-04-17T19:56:36.296Z,72.76
2023-04-17T19:59:02.993Z,72.31
2023-04-17T20:01:30.476Z,72.24
2023-04-17T20:03:57.368Z,72.61
2023-04-17T20:06:23.875Z,72.69
2023-04-17T20:08:50.374Z,72.60
2023-04-17T20:11:16.887Z,72.51
2023-04-17T20:13:43.340Z,72.34
2023-04-17T20:16:09.730Z,72.37
2023-04-17T20:18:37.335Z,72.20
2023-04-17T20:21:05.827Z,72.06
2023-04-17T20:23:32.715Z,72.05
2023-04-17T20:25:59.175Z,71.21
2023-04-17T20:28:28.674Z,70.88
2023-04-17T20:30:55.476Z,71.02
2023-04-17T20:33:21.915Z,71.32
2023-04-17T20:35:48.656Z,71.64
2023-04-17T20:38:15.497Z,71.26
2023-04-17T20:40:41.974Z,71.70
2023-04-17T20:43:08.402Z,71.93
2023-04-17T20:45:34.793Z,72.35
2023-04-17T20:48:01.893Z,72.36
2023-04-17T20:50:28.436Z,72.74
2023-04-17T20:52:54.867Z,72.89
2023-04-17T20:55:21.429Z,73.16
2023-04-17T20:57:47.924Z,73.55
2023-04-17T21:00:14.620Z,73.67
2023-04-17T21:02:41.281Z,73.78
2023-04-17T21:05:09.010Z,73.82
2023-04-17T21:07:36.309Z,74.10
2023-04-17T21:10:03.110Z,73.88
2023-04-17T21:12:29.609Z,74.46
2023-04-17T21:14:56.010Z,74.72
2023-04-17T21:17:22.754Z,74.54
2023-04-17T21:19:49.385Z,75.38
2023-04-17T21:22:15.986Z,75.18
2023-04-17T21:24:42.491Z,75.73
2023-04-17T21:27:08.951Z,75.74
2023-04-17T21:29:35.431Z,75.56
2023-04-17T21:32:01.938Z,75.73
2023-04-17T21:34:28.437Z,75.88
2023-04-17T21:36:54.846Z,75.97
2023-04-17T21:39:21.850Z,75.99
2023-04-17T21:41:48.377Z,75.83
2023-04-17T21:44:15.411Z,76.14
2023-04-17T21:46:45.111Z,76.31
2023-04-17T21:49:11.757Z,75.85
2023-04-17T21:51:38.141Z,75.44
2023-04-17T21:54:04.644Z,75.24
2023-04-17T21:56:31.595Z,74.98
2023-04-17T21:58:58.049Z,74.82
2023-04-17T22:01:24.561Z,74.72
2023-04-17T22:03:51.170Z,74.65
2023-04-17T22:06:17.587Z,74.09
2023-04-17T22:08:44.293Z,74.69
2023-04-17T22:11:10.747Z,74.46
2023-04-17T22:13:37.293Z,74.74
2023-04-17T22:16:03.961Z,74.54
2023-04-17T22:18:30.428Z,74.19
2023-04-17T22:21:15.491Z,73.97
2023-04-17T22:24:19.569Z,73.70
2023-04-17T22:27:04.572Z,73.42
2023-04-17T22:30:27.433Z,73.26
2023-04-17T22:33:31.228Z,73.16
2023-04-17T22:36:53.829Z,72.16
2023-04-17T22:39:38.715Z,70.97
2023-04-17T22:42:42.653Z,70.39
2023-04-17T22:45:46.270Z,70.70
2023-04-17T22:48:50.522Z,69.78
2023-04-17T22:51:17.678Z,69.61
2023-04-17T22:54:23.280Z,69.70
2023-04-17T22:57:08.680Z,69.87
2023-04-17T23:00:12.564Z,69.58
2023-04-17T23:02:58.012Z,69.25
2023-04-17T23:06:01.892Z,68.59
2023-04-17T23:08:29.965Z,68.51
2023-04-17T23:11:00.335Z,68.86
2023-04-17T23:13:31.409Z,68.16
2023-04-17T23:15:57.996Z,68.27
2023-04-17T23:18:24.739Z,68.40
2023-04-17T23:20:51.190Z,68.17
2023-04-17T23:23:19.600Z,67.54
2023-04-17T23:25:46.044Z,67.78
2023-04-17T23:28:12.472Z,67.38
2023-04-17T23:30:38.886Z,67.13
2023-04-17T23:33:05.407Z,66.47
2023-04-17T23:35:31.864Z,66.72
2023-04-17T23:37:58.304Z,65.43
2023-04-17T23:40:25.682Z,65.70
2023-04-17T23:42:52.954Z,64.33
2023-04-17T23:45:19.406Z,65.29
2023-04-17T23:47:46.323Z,63.86
2023-04-17T23:50:12.825Z,62.81
2023-04-17T23:52:39.253Z,62.16
2023-04-17T23:55:06.296Z,61.38
2023-04-17T23:57:35.737Z,61.15
